createdAt,value
2023-05-12T00:00:50.452Z,31.75
2023-05-12T00:03:18.276Z,31.80
2023-05-12T00:05:46.216Z,32.90
2023-05-12T00:08:13.928Z,33.78
2023-05-12T00:10:41.688Z,33.72
2023-05-12T00:13:09.781Z,33.83
2023-05-12T00:15:37.658Z,35.53
2023-05-12T00:18:06.886Z,35.30
2023-05-12T00:20:34.590Z,31.58
2023-05-12T00:23:02.256Z,36.97
2023-05-12T00:25:30.098Z,32.40
2023-05-12T00:27:57.871Z,33.50
2023-05-12T00:30:25.589Z,35.50
2023-05-12T00:32:53.237Z,38.28
2023-05-12T00:35:22.415Z,34.60
2023-05-12T00:37:50.195Z,36.05
2023-05-12T00:40:18.000Z,36.55
2023-05-12T00:42:45.766Z,33.30
2023-05-12T00:45:13.377Z,31.35
2023-05-12T00:47:41.091Z,35.05
2023-05-12T00:50:09.832Z,31.67
2023-05-12T00:52:38.814Z,33.35
2023-05-12T00:55:07.037Z,35.17
2023-05-12T00:57:34.759Z,32.50
2023-05-12T01:00:02.399Z,32.42
2023-05-12T01:02:30.192Z,33.97
2023-05-12T01:04:57.960Z,31.92
2023-05-12T01:07:26.226Z,31.52
2023-05-12T01:09:58.508Z,34.88
2023-05-12T01:12:26.772Z,32.95
2023-05-12T01:14:55.742Z,30.35
2023-05-12T01:17:25.006Z,32.88
2023-05-12T01:19:54.462Z,34.75
2023-05-12T01:22:22.227Z,32.28
2023-05-12T01:24:51.638Z,35.13
2023-05-12T01:27:21.900Z,32.30
2023-05-12T01:29:50.833Z,33.95
2023-05-12T01:32:19.909Z,33.95
2023-05-12T01:34:47.582Z,33.53
2023-05-12T01:37:15.263Z,30.98
2023-05-12T01:39:43.116Z,32.38
2023-05-12T01:42:10.861Z,29.85
2023-05-12T01:44:40.083Z,35.35
2023-05-12T01:47:10.030Z,32.33
2023-05-12T01:49:37.800Z,30.48
2023-05-12T01:52:05.871Z,33.03
2023-05-12T01:54:33.460Z,34.67
2023-05-12T01:57:01.215Z,30.67
2023-05-12T01:59:29.607Z,32.08
2023-05-12T02:01:58.657Z,32.65
2023-05-12T02:04:26.360Z,35.08
2023-05-12T02:06:54.067Z,33.70
2023-05-12T02:09:22.788Z,32.10
2023-05-12T02:11:50.739Z,35.80
2023-05-12T02:14:18.495Z,32.67
2023-05-12T02:16:47.395Z,35.78
2023-05-12T02:19:17.643Z,29.30
2023-05-12T02:21:46.167Z,29.73
2023-05-12T02:24:15.008Z,30.92
2023-05-12T02:26:42.699Z,31.83
2023-05-12T02:29:11.964Z,30.52
2023-05-12T02:31:39.713Z,32.15
2023-05-12T02:34:07.424Z,31.35
2023-05-12T02:36:36.369Z,29.92
2023-05-12T02:39:06.234Z,33.90
2023-05-12T02:41:33.940Z,33.92
2023-05-12T02:44:01.592Z,35.90
2023-05-12T02:46:29.488Z,30.10
2023-05-12T02:48:57.344Z,32.40
2023-05-12T02:51:25.146Z,29.88
2023-05-12T02:53:54.146Z,32.70
2023-05-12T02:56:22.444Z,32.08
2023-05-12T02:58:50.939Z,32.47
2023-05-12T03:01:18.616Z,27.27
2023-05-12T03:03:46.650Z,31.20
2023-05-12T03:06:14.565Z,30.58
2023-05-12T03:08:42.361Z,28.92
2023-05-12T03:11:11.549Z,26.13
2023-05-12T03:13:39.174Z,29.25
2023-05-12T03:16:06.955Z,27.63
2023-05-12T03:18:34.688Z,27.88
2023-05-12T03:21:02.376Z,27.48
2023-05-12T03:23:30.046Z,29.00
2023-05-12T03:25:57.745Z,27.45
2023-05-12T03:28:26.977Z,25.48
2023-05-12T03:30:55.406Z,26.77
2023-05-12T03:33:23.082Z,28.73
2023-05-12T03:35:50.710Z,26.83
2023-05-12T03:38:18.574Z,26.95
2023-05-12T03:40:52.543Z,23.65
2023-05-12T03:43:21.253Z,24.67
2023-05-12T03:45:50.476Z,25.67
2023-05-12T03:48:18.323Z,14.23
2023-05-12T03:50:46.059Z,17.00
2023-05-12T03:53:13.714Z,13.52
2023-05-12T03:55:41.388Z,10.73
2023-05-12T03:58:09.158Z,10.88
2023-05-12T04:00:40.816Z,13.38
2023-05-12T04:03:10.276Z,10.82
2023-05-12T04:05:39.557Z,13.48
2023-05-12T04:08:07.811Z,11.43
2023-05-12T04:10:39.209Z,11.30
2023-05-12T04:13:08.090Z,11.90
2023-05-12T04:15:35.900Z,9.60
2023-05-12T04:18:04.321Z,8.48
2023-05-12T04:20:33.366Z,10.05
2023-05-12T04:23:00.979Z,10.43
2023-05-12T04:25:28.644Z,10.07
2023-05-12T04:27:56.445Z,12.40
2023-05-12T04:30:24.319Z,11.80
2023-05-12T04:32:52.149Z,11.40
2023-05-12T04:35:19.900Z,10.57
2023-05-12T04:37:49.232Z,10.18
2023-05-12T04:40:16.960Z,12.32
2023-05-12T04:42:46.517Z,9.50
2023-05-12T04:45:14.193Z,13.40
2023-05-12T04:47:41.897Z,10.35
2023-05-12T04:50:10.739Z,10.93
2023-05-12T04:52:38.762Z,10.75
2023-05-12T04:55:09.149Z,12.95
2023-05-12T04:57:36.760Z,10.38
2023-05-12T05:00:15.101Z,12.65
2023-05-12T05:02:43.096Z,12.15
2023-05-12T05:05:12.103Z,12.95
2023-05-12T05:07:40.041Z,13.38
2023-05-12T05:10:10.078Z,13.90
2023-05-12T05:12:37.816Z,11.27
2023-05-12T05:15:06.298Z,13.63
2023-05-12T05:17:34.458Z,14.73
2023-05-12T05:22:31.087Z,15.65
2023-05-12T05:24:58.821Z,16.60
2023-05-12T05:27:27.873Z,17.67
2023-05-12T05:29:55.543Z,15.23
2023-05-12T05:32:23.228Z,13.70
2023-05-12T05:34:50.943Z,12.85
2023-05-12T05:37:19.058Z,9.23
2023-05-12T05:39:47.446Z,10.05
2023-05-12T05:42:20.472Z,8.70
2023-05-12T05:44:49.780Z,8.68
2023-05-12T05:47:17.436Z,8.32
2023-05-12T05:49:45.868Z,7.88
2023-05-12T05:52:14.156Z,7.00
2023-05-12T05:54:41.766Z,6.13
2023-05-12T05:57:09.454Z,6.07
2023-05-12T05:59:37.653Z,7.20
2023-05-12T06:02:06.992Z,6.15
2023-05-12T06:04:34.738Z,5.68
2023-05-12T06:07:02.393Z,6.45
2023-05-12T06:09:30.588Z,6.47
2023-05-12T06:11:58.249Z,7.55
2023-05-12T06:14:26.636Z,7.75
2023-05-12T06:16:54.471Z,7.28
2023-05-12T06:19:23.605Z,7.10
2023-05-12T06:21:51.850Z,7.93
2023-05-12T06:24:19.487Z,7.07
2023-05-12T06:26:47.101Z,7.78
2023-05-12T06:29:15.608Z,6.43
2023-05-12T06:31:43.305Z,6.63
2023-05-12T06:34:12.221Z,7.18
2023-05-12T06:36:41.239Z,7.55
2023-05-12T06:39:08.852Z,7.70
2023-05-12T06:41:37.076Z,7.30
2023-05-12T06:44:06.288Z,6.00
2023-05-12T06:46:34.020Z,5.35
2023-05-12T06:49:01.854Z,6.22
2023-05-12T06:51:29.567Z,5.97
2023-05-12T06:53:58.578Z,6.20
2023-05-12T06:56:26.207Z,6.50
2023-05-12T06:58:54.393Z,6.55
2023-05-12T07:01:22.190Z,6.50
2023-05-12T07:03:50.271Z,5.38
2023-05-12T07:06:17.994Z,6.45
2023-05-12T07:08:45.766Z,6.22
2023-05-12T07:11:19.977Z,5.07
2023-05-12T07:13:47.855Z,5.72
2023-05-12T07:16:15.625Z,5.57
2023-05-12T07:18:44.499Z,6.28
2023-05-12T07:21:12.402Z,4.47
2023-05-12T07:23:40.610Z,5.65
2023-05-12T07:26:08.904Z,4.70
2023-05-12T07:28:38.323Z,4.35
2023-05-12T07:31:07.277Z,5.30
2023-05-12T07:33:35.264Z,4.88
2023-05-12T07:36:03.057Z,3.05
2023-05-12T07:38:30.707Z,4.35
2023-05-12T07:40:58.419Z,4.05
2023-05-12T07:43:26.181Z,4.70
2023-05-12T07:45:56.250Z,4.90
2023-05-12T07:48:27.000Z,4.57
2023-05-12T07:50:54.783Z,3.58
2023-05-12T07:53:22.569Z,3.70
2023-05-12T07:55:50.234Z,2.83
2023-05-12T07:58:17.986Z,3.30
2023-05-12T08:00:45.750Z,3.97
2023-05-12T08:03:16.382Z,3.20
2023-05-12T08:05:44.506Z,3.53
2023-05-12T08:08:16.755Z,3.83
2023-05-12T08:10:44.776Z,3.78
2023-05-12T08:13:12.833Z,3.80
2023-05-12T08:15:40.508Z,3.95
2023-05-12T08:18:09.073Z,3.95
2023-05-12T08:20:38.155Z,4.07
2023-05-12T08:23:05.905Z,3.45
2023-05-12T08:25:34.978Z,3.05
2023-05-12T08:28:03.109Z,3.78
2023-05-12T08:30:30.824Z,3.95
2023-05-12T08:32:58.644Z,4.10
2023-05-12T08:35:27.715Z,3.67
2023-05-12T08:37:57.424Z,3.47
2023-05-12T08:40:25.831Z,3.03
2023-05-12T08:43:01.050Z,2.92
2023-05-12T08:45:29.654Z,3.30
2023-05-12T08:47:57.852Z,3.63
2023-05-12T08:50:26.101Z,3.38
2023-05-12T08:52:54.310Z,4.00
2023-05-12T08:55:27.386Z,4.55
2023-05-12T09:00:25.994Z,4.10
2023-05-12T09:02:54.976Z,4.90
2023-05-12T09:05:23.372Z,6.50
2023-05-12T09:07:51.529Z,8.32
2023-05-12T09:10:33.424Z,6.93
2023-05-12T09:13:05.803Z,8.65
2023-05-12T09:15:35.971Z,9.65
2023-05-12T09:18:03.621Z,8.27
2023-05-12T09:20:32.224Z,10.05
2023-05-12T09:23:00.261Z,9.63
2023-05-12T09:25:27.964Z,10.25
2023-05-12T09:27:56.615Z,12.23
2023-05-12T09:30:35.424Z,11.23
2023-05-12T09:33:06.858Z,11.55
2023-05-12T09:35:39.091Z,10.55
2023-05-12T09:38:07.411Z,11.70
2023-05-12T09:40:35.165Z,11.93
2023-05-12T09:43:02.820Z,11.25
2023-05-12T09:45:30.567Z,11.52
2023-05-12T09:48:03.914Z,12.55
2023-05-12T09:50:40.951Z,14.02
2023-05-12T09:53:18.033Z,14.10
2023-05-12T09:55:48.202Z,16.88
2023-05-12T09:58:18.002Z,16.52
2023-05-12T10:03:22.072Z,15.32
2023-05-12T10:05:50.701Z,14.82
2023-05-12T10:08:26.738Z,14.43
2023-05-12T10:10:54.936Z,12.30
2023-05-12T10:13:23.767Z,12.82
2023-05-12T10:15:53.198Z,11.55
2023-05-12T10:18:23.431Z,9.68
2023-05-12T10:20:52.683Z,9.75
2023-05-12T10:23:21.279Z,9.85
2023-05-12T10:25:50.937Z,8.48
2023-05-12T10:28:20.169Z,7.95
2023-05-12T10:30:48.913Z,7.90
2023-05-12T10:33:17.840Z,7.63
2023-05-12T10:35:48.557Z,6.13
2023-05-12T10:38:22.026Z,4.78
2023-05-12T10:40:52.335Z,4.18
2023-05-12T10:43:23.062Z,3.92
2023-05-12T10:46:05.557Z,3.90
2023-05-12T10:48:33.414Z,4.25
2023-05-12T10:51:09.181Z,3.60
2023-05-12T10:53:49.204Z,4.10
2023-05-12T10:56:23.389Z,3.80
2023-05-12T10:59:08.720Z,3.90
2023-05-12T11:01:37.627Z,3.50
2023-05-12T11:04:13.226Z,4.07
2023-05-12T11:06:43.665Z,3.40
2023-05-12T11:09:13.338Z,3.83
2023-05-12T11:11:41.448Z,2.97
2023-05-12T11:14:09.622Z,3.78
2023-05-12T11:16:42.661Z,2.67
2023-05-12T11:19:10.684Z,4.07
2023-05-12T11:21:38.646Z,3.28
2023-05-12T11:24:13.285Z,3.35
2023-05-12T11:26:41.755Z,2.90
2023-05-12T11:29:09.403Z,2.63
2023-05-12T11:31:38.034Z,2.63
2023-05-12T11:34:12.582Z,2.67
2023-05-12T11:36:42.253Z,2.40
2023-05-12T11:39:17.315Z,2.42
2023-05-12T11:41:45.202Z,2.35
2023-05-12T11:44:19.831Z,2.33
2023-05-12T11:46:57.339Z,2.17
2023-05-12T11:49:25.404Z,3.05
2023-05-12T11:51:54.108Z,2.17
2023-05-12T11:54:23.691Z,2.28
2023-05-12T11:56:52.592Z,1.95
2023-05-12T11:59:29.315Z,2.70
2023-05-12T12:01:57.449Z,2.00
2023-05-12T12:04:45.990Z,2.45
2023-05-12T12:07:14.083Z,1.80
2023-05-12T12:09:43.120Z,2.20
2023-05-12T12:12:11.604Z,2.63
2023-05-12T12:14:41.512Z,1.55
2023-05-12T12:17:09.712Z,2.00
2023-05-12T12:19:37.482Z,2.20
2023-05-12T12:22:05.240Z,2.08
2023-05-12T12:24:33.251Z,2.95
2023-05-12T12:27:02.219Z,2.05
2023-05-12T12:29:30.686Z,1.75
2023-05-12T12:31:59.079Z,2.88
2023-05-12T12:34:26.747Z,3.08
2023-05-12T12:36:54.435Z,3.30
2023-05-12T12:39:23.249Z,2.92
2023-05-12T12:41:51.142Z,3.05
2023-05-12T12:44:20.187Z,2.83
2023-05-12T12:46:47.876Z,2.88
2023-05-12T12:49:15.752Z,2.50
2023-05-12T12:51:46.703Z,3.30
2023-05-12T12:54:14.852Z,3.03
2023-05-12T12:56:42.855Z,3.53
2023-05-12T12:59:11.133Z,4.15
2023-05-12T13:01:40.119Z,4.18
2023-05-12T13:04:07.824Z,4.07
2023-05-12T13:06:35.800Z,4.15
2023-05-12T13:09:04.018Z,4.00
2023-05-12T13:11:31.606Z,3.88
2023-05-12T13:14:04.607Z,4.47
2023-05-12T13:16:32.421Z,5.15
2023-05-12T13:19:01.565Z,4.18
2023-05-12T13:21:32.429Z,4.60
2023-05-12T13:24:00.076Z,4.43
2023-05-12T13:26:28.012Z,5.20
2023-05-12T13:28:55.673Z,4.90
2023-05-12T13:31:23.464Z,5.25
2023-05-12T13:33:51.305Z,5.40
2023-05-12T13:36:20.329Z,4.78
2023-05-12T13:38:48.569Z,5.03
2023-05-12T13:41:16.311Z,4.93
2023-05-12T13:43:44.156Z,5.25
2023-05-12T13:46:12.889Z,5.57
2023-05-12T13:48:40.810Z,5.90
2023-05-12T13:51:08.562Z,5.63
2023-05-12T13:53:40.187Z,5.53
2023-05-12T13:56:10.287Z,5.22
2023-05-12T13:58:39.272Z,5.38
2023-05-12T14:01:08.722Z,6.10
2023-05-12T14:03:38.057Z,4.90
2023-05-12T14:06:05.906Z,5.93
2023-05-12T14:08:33.571Z,5.20
2023-05-12T14:11:02.679Z,4.82
2023-05-12T14:13:30.345Z,5.40
2023-05-12T14:15:58.379Z,4.80
2023-05-12T14:18:26.128Z,4.80
2023-05-12T14:20:54.496Z,5.03
2023-05-12T14:23:22.321Z,4.50
2023-05-12T14:25:50.032Z,4.07
2023-05-12T14:28:19.045Z,3.53
2023-05-12T14:30:48.717Z,3.63
2023-05-12T14:33:16.507Z,4.00
2023-05-12T14:35:52.887Z,3.25
2023-05-12T14:38:27.257Z,3.10
2023-05-12T14:40:54.952Z,3.20
2023-05-12T14:43:23.935Z,3.35
2023-05-12T14:45:54.463Z,2.60
2023-05-12T14:48:23.449Z,3.42
2023-05-12T14:50:53.304Z,2.55
2023-05-12T14:53:21.519Z,2.40
2023-05-12T14:55:49.929Z,2.40
2023-05-12T14:58:18.282Z,2.38
2023-05-12T15:00:48.290Z,2.63
2023-05-12T15:03:16.502Z,2.60
2023-05-12T15:08:14.896Z,2.55
2023-05-12T15:10:44.172Z,2.72
2023-05-12T15:13:12.568Z,2.50
2023-05-12T15:15:40.277Z,2.67
2023-05-12T15:18:09.416Z,2.47
2023-05-12T15:20:39.281Z,2.13
2023-05-12T15:23:07.001Z,2.55
2023-05-12T15:25:34.711Z,2.22
2023-05-12T15:28:02.396Z,2.05
2023-05-12T15:30:30.306Z,2.28
2023-05-12T15:32:57.942Z,2.03
2023-05-12T15:35:27.667Z,2.20
2023-05-12T15:37:55.593Z,1.85
2023-05-12T15:40:25.438Z,1.73
2023-05-12T15:42:53.343Z,1.73
2023-05-12T15:45:21.220Z,1.52
2023-05-12T15:47:49.242Z,1.10
2023-05-12T15:50:19.995Z,1.48
2023-05-12T15:52:49.666Z,2.03
2023-05-12T15:55:18.075Z,2.20
2023-05-12T15:57:45.893Z,1.88
2023-05-12T16:00:14.250Z,1.30
2023-05-12T16:02:42.190Z,1.30
2023-05-12T16:05:10.476Z,1.25
2023-05-12T16:07:38.807Z,2.00
2023-05-12T16:10:08.374Z,1.40
2023-05-12T16:12:36.003Z,1.33
2023-05-12T16:15:05.032Z,1.20
2023-05-12T16:17:33.585Z,1.35
2023-05-12T16:20:02.622Z,1.10
2023-05-12T16:22:33.457Z,1.17
2023-05-12T16:25:01.260Z,1.30
2023-05-12T16:27:32.020Z,1.85
2023-05-12T16:30:00.396Z,1.08
2023-05-12T16:32:28.987Z,1.30
2023-05-12T16:34:57.452Z,1.33
2023-05-12T16:37:26.470Z,1.40
2023-05-12T16:39:54.616Z,1.45
2023-05-12T16:42:22.321Z,1.40
2023-05-12T16:44:53.631Z,2.10
2023-05-12T16:47:21.568Z,1.77
2023-05-12T16:49:52.675Z,1.95
2023-05-12T16:52:20.432Z,2.45
2023-05-12T16:54:48.183Z,1.83
2023-05-12T16:57:15.924Z,1.92
2023-05-12T16:59:44.346Z,2.20
2023-05-12T17:02:13.421Z,2.20
2023-05-12T17:04:41.531Z,1.80
2023-05-12T17:07:09.712Z,1.95
2023-05-12T17:09:37.840Z,1.92
2023-05-12T17:12:06.948Z,2.05
2023-05-12T17:14:34.991Z,2.15
2023-05-12T17:17:02.952Z,3.05
2023-05-12T17:19:32.317Z,2.10
2023-05-12T17:22:00.046Z,2.58
2023-05-12T17:24:28.092Z,2.70
2023-05-12T17:26:58.207Z,3.65
2023-05-12T17:29:25.932Z,3.42
2023-05-12T17:31:55.016Z,3.45
2023-05-12T17:34:24.890Z,3.50
2023-05-12T17:36:54.422Z,3.35
2023-05-12T17:39:25.138Z,3.65
2023-05-12T17:41:52.792Z,3.67
2023-05-12T17:44:20.512Z,4.00
2023-05-12T17:46:48.583Z,3.42
2023-05-12T17:49:16.345Z,3.78
2023-05-12T17:51:44.445Z,3.13
2023-05-12T17:54:13.543Z,3.70
2023-05-12T17:56:41.328Z,3.67
2023-05-12T17:59:09.022Z,3.55
2023-05-12T18:01:36.971Z,4.10
2023-05-12T18:04:04.917Z,3.63
2023-05-12T18:06:33.290Z,4.10
2023-05-12T18:09:01.112Z,3.65
2023-05-12T18:11:30.259Z,3.35
2023-05-12T18:14:01.900Z,3.58
2023-05-12T18:16:29.895Z,3.30
2023-05-12T18:18:58.025Z,3.40
2023-05-12T18:21:26.239Z,2.85
2023-05-12T18:23:53.929Z,3.85
2023-05-12T18:26:21.632Z,3.50
2023-05-12T18:28:50.644Z,3.30
2023-05-12T18:31:20.164Z,3.97
2023-05-12T18:33:48.007Z,4.32
2023-05-12T18:36:15.727Z,4.78
2023-05-12T18:38:43.384Z,4.60
2023-05-12T18:41:11.103Z,4.13
2023-05-12T18:43:38.854Z,4.32
2023-05-12T18:46:07.960Z,4.03
2023-05-12T18:48:35.621Z,3.67
2023-05-12T18:51:03.289Z,3.65
2023-05-12T18:53:30.960Z,3.58
2023-05-12T18:55:59.522Z,4.15
2023-05-12T18:58:27.385Z,4.25
2023-05-12T19:00:55.703Z,4.38
2023-05-12T19:03:24.690Z,5.22
2023-05-12T19:05:52.374Z,5.30
2023-05-12T19:08:20.330Z,4.85
2023-05-12T19:10:48.779Z,4.30
2023-05-12T19:13:16.536Z,4.90
2023-05-12T19:15:44.207Z,4.97
2023-05-12T19:18:44.628Z,5.78
2023-05-12T19:21:12.526Z,6.20
2023-05-12T19:23:40.201Z,6.43
2023-05-12T19:26:09.216Z,6.20
2023-05-12T19:28:37.101Z,6.55
2023-05-12T19:31:05.101Z,6.15
2023-05-12T19:33:35.207Z,7.03
2023-05-12T19:36:03.215Z,6.82
2023-05-12T19:38:30.891Z,6.80
2023-05-12T19:40:58.745Z,6.13
2023-05-12T19:43:26.438Z,6.18
2023-05-12T19:45:55.702Z,6.32
2023-05-12T19:48:23.472Z,6.68
2023-05-12T19:50:52.517Z,6.60
2023-05-12T19:53:20.469Z,7.32
2023-05-12T19:55:48.131Z,6.97
2023-05-12T19:58:15.913Z,7.00
2023-05-12T20:00:43.556Z,6.97
2023-05-12T20:03:11.474Z,7.13
2023-05-12T20:05:39.694Z,7.72
2023-05-12T20:08:08.753Z,7.07
2023-05-12T20:10:36.526Z,8.23
2023-05-12T20:13:04.756Z,7.22
2023-05-12T20:15:34.111Z,9.23
2023-05-12T20:18:01.987Z,8.20
2023-05-12T20:20:32.433Z,10.13
2023-05-12T20:23:05.389Z,9.10
2023-05-12T20:25:36.157Z,9.25
2023-05-12T20:28:07.307Z,13.90
2023-05-12T20:30:35.745Z,10.50
2023-05-12T20:33:03.427Z,10.80
2023-05-12T20:35:31.108Z,9.60
2023-05-12T20:37:58.858Z,10.15
2023-05-12T20:40:26.531Z,10.40
2023-05-12T20:42:55.629Z,9.13
2023-05-12T20:45:26.030Z,8.15
2023-05-12T20:47:53.757Z,9.10
2023-05-12T20:50:25.236Z,7.95
2023-05-12T20:52:52.996Z,7.88
2023-05-12T20:55:20.906Z,6.70
2023-05-12T20:57:48.872Z,7.22
2023-05-12T21:00:18.356Z,7.05
2023-05-12T21:02:47.191Z,6.40
2023-05-12T21:05:15.216Z,6.47
2023-05-12T21:07:42.884Z,7.05
2023-05-12T21:10:10.800Z,6.50
2023-05-12T21:12:38.611Z,5.60
2023-05-12T21:15:07.023Z,6.05
2023-05-12T21:17:36.138Z,5.18
2023-05-12T21:20:04.354Z,5.03
2023-05-12T21:22:33.358Z,5.15
2023-05-12T21:25:00.993Z,4.40
2023-05-12T21:27:28.904Z,4.63
2023-05-12T21:29:57.302Z,3.85
2023-05-12T21:32:25.549Z,4.13
2023-05-12T21:34:54.532Z,4.20
2023-05-12T21:37:22.167Z,4.07
2023-05-12T21:39:50.164Z,4.18
2023-05-12T21:42:18.594Z,3.63
2023-05-12T21:44:46.255Z,4.10
2023-05-12T21:47:13.988Z,4.07
2023-05-12T21:49:41.588Z,3.90
2023-05-12T21:52:10.852Z,4.18
2023-05-12T21:54:38.482Z,4.60
2023-05-12T21:57:06.363Z,3.85
2023-05-12T21:59:34.043Z,3.35
2023-05-12T22:02:01.742Z,3.65
2023-05-12T22:04:29.752Z,4.00
2023-05-12T22:06:57.423Z,4.15
2023-05-12T22:09:26.582Z,4.47
2023-05-12T22:11:54.226Z,3.65
2023-05-12T22:14:21.987Z,4.20
2023-05-12T22:16:49.734Z,3.70
2023-05-12T22:19:17.570Z,4.20
2023-05-12T22:21:46.459Z,3.83
2023-05-12T22:24:14.102Z,3.95
2023-05-12T22:26:43.134Z,4.00
2023-05-12T22:29:10.760Z,5.60
2023-05-12T22:31:38.592Z,4.65
2023-05-12T22:34:06.405Z,4.90
2023-05-12T22:36:34.098Z,4.90
2023-05-12T22:39:01.968Z,4.18
2023-05-12T22:41:29.622Z,4.45
2023-05-12T22:43:58.947Z,4.47
2023-05-12T22:46:26.598Z,4.18
2023-05-12T22:48:55.881Z,4.90
2023-05-12T22:51:23.513Z,4.40
2023-05-12T22:53:51.257Z,4.32
2023-05-12T22:56:18.884Z,4.60
2023-05-12T22:58:46.601Z,5.53
2023-05-12T23:01:16.319Z,4.75
2023-05-12T23:03:44.718Z,4.97
2023-05-12T23:06:12.362Z,4.82
2023-05-12T23:08:40.011Z,4.85
2023-05-12T23:11:09.555Z,5.20
2023-05-12T23:13:37.276Z,4.57
2023-05-12T23:16:05.120Z,4.43
2023-05-12T23:18:34.212Z,5.25
2023-05-12T23:21:04.102Z,4.47
2023-05-12T23:23:33.021Z,5.05
2023-05-12T23:26:01.639Z,5.30
2023-05-12T23:28:29.278Z,5.40
2023-05-12T23:30:57.065Z,5.03
2023-05-12T23:33:24.886Z,5.55
2023-05-12T23:35:54.035Z,5.43
2023-05-12T23:38:21.831Z,5.57
2023-05-12T23:40:49.613Z,5.40
2023-05-12T23:43:17.798Z,5.15
2023-05-12T23:45:46.370Z,5.88
2023-05-12T23:48:13.960Z,5.22
2023-05-12T23:50:41.745Z,5.53
2023-05-12T23:53:11.377Z,6.07
2023-05-12T23:55:38.984Z,5.72
2023-05-12T23:58:06.978Z,6.13
